Time;durP1;ratioP1;P1;durP2;ratioP2;P2;SDS_P1;SDS_P2;PMS_P1;PMS_P2;Temp;Humidity;BMP_temperature;BMP_pressure;BME280_temperature;BME280_humidity;BME280_pressure;Samples;Min_cycle;Max_cycle;Signal;HPM_P1;HPM_P2
2022/01/12 00:00:06;;;;;;;27.13;14.30;;;;;;;1.83;82.84;103486.97;5044239;28;20065;-61
2022/01/12 00:02:31;;;;;;;26.50;14.77;;;;;;;1.91;82.41;103499.88;5045060;28;20120;-61
2022/01/12 00:04:57;;;;;;;26.10;14.50;;;;;;;1.87;82.64;103513.03;5050269;28;20116;-61
2022/01/12 00:07:23;;;;;;;25.87;15.13;;;;;;;1.85;83.27;103514.84;5046883;28;20038;-61
2022/01/12 00:09:48;;;;;;;27.23;16.20;;;;;;;1.86;82.90;103510.44;5047151;28;20040;-61
2022/01/12 00:12:13;;;;;;;27.53;16.00;;;;;;;1.89;82.98;103515.59;5048221;28;20381;-61
2022/01/12 00:14:38;;;;;;;30.67;17.07;;;;;;;1.89;83.15;103518.22;5048983;28;20037;-61
2022/01/12 00:17:04;;;;;;;28.13;15.70;;;;;;;1.91;82.42;103519.03;5050310;28;20115;-61
2022/01/12 00:19:30;;;;;;;25.70;14.87;;;;;;;1.93;82.43;103516.38;5049213;28;20130;-61
2022/01/12 00:21:56;;;;;;;30.10;15.43;;;;;;;1.94;82.78;103518.97;5048813;28;20041;-61
2022/01/12 00:24:24;;;;;;;26.63;15.20;;;;;;;1.94;82.20;103524.22;5048298;28;20029;-61
2022/01/12 00:35:01;;;;;;;26.10;14.93;;;;;;;1.97;82.22;103531.13;5051355;28;20040;-61
2022/01/12 00:37:27;;;;;;;29.07;15.70;;;;;;;1.99;82.14;103532.81;5046198;28;20033;-61
2022/01/12 00:39:58;;;;;;;26.80;15.10;;;;;;;1.98;82.23;103536.31;5049296;28;20982;-61
2022/01/12 00:42:25;;;;;;;28.17;16.20;;;;;;;1.99;82.09;103542.41;5046150;28;20431;-61
2022/01/12 00:44:52;;;;;;;26.50;15.00;;;;;;;2.02;81.89;103542.31;5042522;28;20476;-61
2022/01/12 00:47:18;;;;;;;27.57;15.77;;;;;;;1.97;83.78;103558.16;5047702;28;20036;-61
2022/01/12 00:49:43;;;;;;;26.17;16.27;;;;;;;1.97;83.86;103557.31;5053861;28;20029;-61
2022/01/12 00:52:08;;;;;;;28.03;16.50;;;;;;;1.99;83.51;103559.00;5050626;28;20127;-61
2022/01/12 00:54:34;;;;;;;31.70;16.53;;;;;;;1.94;84.46;103563.47;5051047;28;20033;-61
2022/01/12 00:56:59;;;;;;;30.97;16.83;;;;;;;1.92;85.02;103562.63;5052585;28;20651;-61
2022/01/12 00:59:25;;;;;;;32.57;18.33;;;;;;;1.90;85.56;103564.44;5045617;28;20037;-61
2022/01/12 01:01:50;;;;;;;30.23;17.70;;;;;;;1.88;86.42;103568.84;5048207;28;20048;-61
2022/01/12 01:04:16;;;;;;;32.23;18.53;;;;;;;1.86;86.85;103568.00;5040874;28;20061;-61
2022/01/12 01:06:42;;;;;;;34.00;18.50;;;;;;;1.82;87.83;103566.38;5044168;28;20119;-61
2022/01/12 01:09:07;;;;;;;33.73;19.10;;;;;;;1.80;88.53;103568.16;5047784;28;20037;-61
2022/01/12 01:11:33;;;;;;;34.83;19.00;;;;;;;1.79;88.80;103574.28;5050350;28;20094;-61
2022/01/12 01:14:00;;;;;;;35.13;19.23;;;;;;;1.76;89.00;103579.59;5045639;28;20035;-60
2022/01/12 01:16:46;;;;;;;37.77;20.90;;;;;;;1.68;89.97;103570.16;5050011;28;20037;-61
2022/01/12 01:27:27;;;;;;;40.43;21.17;;;;;;;1.63;91.41;103556.31;5046608;28;20087;-60
2022/01/12 01:29:54;;;;;;;33.43;21.03;;;;;;;1.60;91.64;103551.19;5051694;28;20029;-63
2022/01/12 01:32:20;;;;;;;37.60;21.43;;;;;;;1.59;91.99;103550.31;5046049;28;20025;-64
2022/01/12 01:34:47;;;;;;;34.93;21.03;;;;;;;1.58;91.85;103552.97;5046840;28;20052;-64
2022/01/12 01:37:14;;;;;;;37.90;21.53;;;;;;;1.55;92.31;103571.34;5051472;28;20025;-63
2022/01/12 01:39:39;;;;;;;36.13;20.87;;;;;;;1.55;92.24;103568.72;5051641;28;20384;-63
2022/01/12 01:42:14;;;;;;;36.03;21.33;;;;;;;1.55;92.40;103571.34;5051404;28;20067;-64
2022/01/12 01:55:20;;;;;;;35.13;21.43;;;;;;;1.55;93.09;103573.94;5054239;28;20121;-64
2022/01/12 01:57:45;;;;;;;37.23;21.17;;;;;;;1.53;93.42;103560.91;5051994;28;20108;-61
2022/01/12 02:00:14;;;;;;;39.80;22.50;;;;;;;1.53;93.32;103549.59;5048517;28;20457;-61
2022/01/12 02:02:40;;;;;;;36.60;21.50;;;;;;;1.53;93.65;103550.44;5053582;28;20061;-63
2022/01/12 02:05:06;;;;;;;39.97;22.00;;;;;;;1.53;93.66;103544.38;5054602;28;20056;-60
2022/01/12 02:07:33;;;;;;;40.37;21.77;;;;;;;1.51;93.54;103535.69;5044690;28;20504;-61
2022/01/12 02:09:58;;;;;;;39.67;22.07;;;;;;;1.52;93.77;103527.81;5046430;28;20024;-60
2022/01/12 02:12:25;;;;;;;38.50;22.20;;;;;;;1.53;93.68;103549.59;5051383;28;20388;-60
2022/01/12 02:14:51;;;;;;;41.73;22.10;;;;;;;1.47;93.68;103540.13;5052276;28;20494;-60
2022/01/12 02:17:21;;;;;;;38.20;22.10;;;;;;;1.45;94.01;103541.91;5049501;28;20029;-61
2022/01/12 02:20:06;;;;;;;42.63;23.10;;;;;;;1.46;94.20;103547.13;5053405;28;20060;-61
2022/01/12 02:35:15;;;;;;;40.10;22.37;;;;;;;1.42;94.17;103548.06;5046047;28;20043;-61
2022/01/12 02:36:32;;;;;;;38.93;22.70;;;;;;;1.44;94.29;103577.66;5050709;28;20099;-60
2022/01/12 02:41:42;;;;;;;38.37;22.07;;;;;;;1.46;93.80;103575.00;5059671;28;20113;-61
2022/01/12 02:54:43;;;;;;;40.33;22.77;;;;;;;1.50;93.83;103581.03;5053721;28;20416;-61
2022/01/12 02:57:08;;;;;;;40.40;22.77;;;;;;;1.52;93.78;103584.50;5055257;28;20476;-60
2022/01/12 02:59:33;;;;;;;39.17;22.40;;;;;;;1.47;93.92;103590.69;5050012;28;20036;-61
2022/01/12 03:04:51;;;;;;;43.40;22.43;;;;;;;1.50;93.59;103599.34;5052648;28;20049;-60
2022/01/12 03:07:20;;;;;;;39.67;22.63;;;;;;;1.53;93.22;103612.38;5046088;28;20116;-61
2022/01/12 03:09:45;;;;;;;38.70;22.00;;;;;;;1.52;93.32;103611.50;5048910;28;20043;-61
2022/01/12 03:12:10;;;;;;;41.13;23.20;;;;;;;1.54;93.35;103614.09;5050315;28;20030;-61
2022/01/12 03:14:35;;;;;;;42.77;23.43;;;;;;;1.51;93.46;103630.69;5051714;28;20526;-61
2022/01/12 03:17:01;;;;;;;38.83;22.77;;;;;;;1.52;93.74;103627.19;5042168;28;20049;-61
2022/01/12 03:19:26;;;;;;;40.70;23.13;;;;;;;1.52;93.46;103634.19;5051488;28;20029;-61
2022/01/12 03:21:51;;;;;;;40.97;23.27;;;;;;;1.53;93.54;103631.53;5052615;28;20540;-61
2022/01/12 03:24:17;;;;;;;42.00;23.77;;;;;;;1.54;93.79;103637.63;5051401;28;20041;-60
2022/01/12 03:26:42;;;;;;;41.40;24.20;;;;;;;1.55;93.45;103642.84;5052154;28;20029;-61
2022/01/12 03:29:07;;;;;;;42.83;23.90;;;;;;;1.52;93.61;103639.44;5047448;28;20035;-61
2022/01/12 03:31:35;;;;;;;41.87;24.03;;;;;;;1.48;93.74;103636.84;5045131;28;20392;-61
2022/01/12 03:34:09;;;;;;;42.67;24.00;;;;;;;1.47;93.38;103637.75;5048343;28;20117;-60
2022/01/12 03:37:05;;;;;;;41.33;24.00;;;;;;;1.51;93.89;103640.28;5044522;28;20051;-61
2022/01/12 03:39:28;;;;;;;40.97;23.67;;;;;;;1.51;94.14;103635.06;5044520;28;20132;-61
2022/01/12 03:41:53;;;;;;;40.30;24.33;;;;;;;1.51;94.12;103629.81;5050438;28;20112;-61
2022/01/12 03:44:19;;;;;;;41.00;23.87;;;;;;;1.53;93.58;103628.91;5051068;28;20041;-61
2022/01/12 03:46:47;;;;;;;44.40;24.67;;;;;;;1.48;94.01;103626.41;5058405;28;20036;-60
2022/01/12 03:49:14;;;;;;;41.80;23.33;;;;;;;1.45;93.80;103615.16;5051435;28;20057;-61
2022/01/12 03:51:39;;;;;;;47.93;24.97;;;;;;;1.48;93.84;103621.16;5050895;28;20036;-61
2022/01/12 03:54:04;;;;;;;45.53;24.00;;;;;;;1.47;93.57;103629.91;5046201;28;20025;-61
2022/01/12 03:56:30;;;;;;;48.97;24.00;;;;;;;1.46;93.91;103628.19;5049586;28;20029;-61
2022/01/12 03:58:55;;;;;;;45.40;25.83;;;;;;;1.43;94.41;103628.25;5047280;28;20052;-61
2022/01/12 04:01:21;;;;;;;46.93;25.73;;;;;;;1.48;93.77;103639.47;5048375;28;20052;-61
2022/01/12 04:03:57;;;;;;;43.63;24.43;;;;;;;1.45;94.12;103646.53;5046788;28;20485;-61
2022/01/12 04:09:07;;;;;;;46.97;25.43;;;;;;;1.40;94.83;103664.94;5045253;28;20102;-61
2022/01/12 04:11:32;;;;;;;46.17;26.30;;;;;;;1.40;95.03;103654.47;5049661;28;20029;-60
2022/01/12 04:13:57;;;;;;;51.33;27.37;;;;;;;1.44;95.63;103655.28;5051184;28;21359;-60
2022/01/12 04:16:22;;;;;;;49.20;26.27;;;;;;;1.43;95.46;103651.78;5046583;28;20045;-60
2022/01/12 04:18:48;;;;;;;51.27;27.47;;;;;;;1.45;95.47;103662.22;5049342;28;20029;-61
2022/01/12 04:21:13;;;;;;;49.37;26.47;;;;;;;1.44;95.31;103650.03;5049168;28;20494;-62
2022/01/12 04:23:41;;;;;;;51.40;27.00;;;;;;;1.41;95.82;103650.97;5044996;28;20079;-61
2022/01/12 04:26:13;;;;;;;51.03;27.97;;;;;;;1.42;95.77;103651.81;5048988;28;20083;-61
2022/01/12 04:28:42;;;;;;;50.42;27.05;;;;;;;1.46;95.74;103658.72;5050249;28;20640;-61
2022/01/12 04:31:08;;;;;;;54.30;28.10;;;;;;;1.45;96.02;103663.09;5045387;28;20021;-62
2022/01/12 04:33:35;;;;;;;53.33;28.23;;;;;;;1.46;96.31;103651.72;5049323;28;20163;-62
2022/01/12 04:36:01;;;;;;;53.00;28.17;;;;;;;1.46;96.28;103654.34;5050340;28;20114;-61
2022/01/12 04:38:30;;;;;;;51.27;28.47;;;;;;;1.46;96.26;103638.66;5050079;28;20625;-62
2022/01/12 04:40:56;;;;;;;52.47;28.23;;;;;;;1.51;96.03;103643.78;5051503;28;20035;-62
2022/01/12 04:43:24;;;;;;;50.10;29.40;;;;;;;1.52;96.25;103653.34;5051180;28;20067;-62
2022/01/12 04:50:41;;;;;;;53.57;28.50;;;;;;;1.56;96.19;103646.28;5051544;28;20044;-62
2022/01/12 04:53:07;;;;;;;52.90;29.03;;;;;;;1.55;95.93;103649.81;5050102;28;20127;-62
2022/01/12 04:55:32;;;;;;;49.67;28.53;;;;;;;1.56;96.31;103641.06;5039867;28;20036;-62
2022/01/12 04:57:57;;;;;;;53.63;28.90;;;;;;;1.55;96.30;103639.34;5047778;28;20151;-62
2022/01/12 05:00:25;;;;;;;53.73;29.17;;;;;;;1.55;96.33;103628.88;5040586;28;20471;-62
2022/01/12 05:13:32;;;;;;;50.37;29.13;;;;;;;1.55;96.09;103636.72;5054740;28;20063;-61
2022/01/12 05:15:58;;;;;;;57.07;29.53;;;;;;;1.55;96.16;103641.97;5054139;28;20043;-60
2022/01/12 05:18:24;;;;;;;52.90;29.97;;;;;;;1.56;96.31;103644.56;5048442;28;20453;-61
2022/01/12 05:20:49;;;;;;;56.03;29.70;;;;;;;1.57;96.58;103637.53;5049397;28;20033;-62
2022/01/12 05:23:14;;;;;;;52.17;30.33;;;;;;;1.59;96.47;103638.41;5054022;28;20396;-62
2022/01/12 05:25:40;;;;;;;58.13;30.60;;;;;;;1.58;96.28;103641.91;5048754;28;20029;-62
2022/01/12 05:28:06;;;;;;;54.63;29.13;;;;;;;1.57;96.06;103642.78;5051476;28;20052;-62
2022/01/12 05:30:32;;;;;;;51.80;28.90;;;;;;;1.52;96.18;103642.88;5049654;28;20025;-62
2022/01/12 05:32:59;;;;;;;53.80;30.23;;;;;;;1.54;96.34;103648.09;5051069;28;20024;-62
2022/01/12 05:35:30;;;;;;;51.43;29.00;;;;;;;1.55;96.29;103657.66;5053580;28;20036;-62
2022/01/12 05:37:56;;;;;;;54.17;30.87;;;;;;;1.55;96.30;103662.88;5049845;28;20059;-62
2022/01/12 05:40:21;;;;;;;52.67;30.37;;;;;;;1.55;96.39;103668.13;5046125;28;20053;-62
2022/01/12 05:42:48;;;;;;;55.97;30.67;;;;;;;1.56;96.44;103664.59;5053207;28;20451;-62
2022/01/12 05:45:15;;;;;;;52.80;30.17;;;;;;;1.55;96.34;103662.88;5053060;28;20695;-62
2022/01/12 05:50:06;;;;;;;56.17;32.00;;;;;;;1.54;96.53;103669.00;5054728;28;20527;-62
2022/01/12 05:52:31;;;;;;;56.40;30.70;;;;;;;1.54;96.49;103669.88;5053703;28;20410;-62
2022/01/12 05:54:57;;;;;;;58.53;31.47;;;;;;;1.55;96.66;103669.00;5053183;28;20036;-62
2022/01/12 05:57:22;;;;;;;57.33;32.23;;;;;;;1.53;96.14;103662.06;5048398;28;20473;-61
2022/01/12 05:59:47;;;;;;;61.27;32.27;;;;;;;1.53;96.67;103664.69;5050583;28;20035;-62
2022/01/12 06:02:12;;;;;;;60.07;32.43;;;;;;;1.53;96.85;103664.69;5050259;28;20037;-62
2022/01/12 06:04:38;;;;;;;61.50;32.57;;;;;;;1.55;96.77;103668.13;5053389;28;20055;-61
2022/01/12 06:07:03;;;;;;;58.50;31.63;;;;;;;1.59;97.03;103669.78;5049203;28;20462;-63
2022/01/12 06:09:29;;;;;;;58.33;32.83;;;;;;;1.55;96.48;103675.97;5043077;28;20639;-63
2022/01/12 06:11:54;;;;;;;60.73;32.63;;;;;;;1.55;96.95;103679.44;5050177;28;20102;-63
2022/01/12 06:14:20;;;;;;;56.60;31.10;;;;;;;1.56;96.98;103669.84;5051911;28;20078;-62
2022/01/12 06:16:46;;;;;;;58.83;33.17;;;;;;;1.57;96.50;103674.16;5050944;28;20037;-62
2022/01/12 06:19:11;;;;;;;61.43;32.70;;;;;;;1.58;97.22;103678.53;5045099;28;20033;-62
2022/01/12 06:21:37;;;;;;;58.70;32.20;;;;;;;1.57;97.05;103682.00;5050457;28;20060;-62
2022/01/12 06:24:02;;;;;;;61.13;33.10;;;;;;;1.58;96.83;103683.75;5049487;28;20476;-62
2022/01/12 06:26:28;;;;;;;60.37;32.03;;;;;;;1.60;97.08;103700.28;5051362;28;20123;-62
2022/01/12 06:31:32;;;;;;;60.67;32.47;;;;;;;1.59;97.37;103706.41;5049682;28;20145;-62
2022/01/12 06:33:57;;;;;;;60.47;33.37;;;;;;;1.59;96.91;103709.03;5044653;28;20104;-62
2022/01/12 06:36:22;;;;;;;60.27;33.33;;;;;;;1.55;97.09;103716.06;5045770;28;20048;-62
2022/01/12 06:38:48;;;;;;;61.67;33.27;;;;;;;1.55;97.20;103723.03;5051361;28;20037;-62
2022/01/12 06:41:15;;;;;;;58.80;32.67;;;;;;;1.58;97.06;103725.63;5043274;28;20099;-62
2022/01/12 06:43:41;;;;;;;60.73;33.00;;;;;;;1.54;97.14;103723.94;5044819;28;20044;-62
2022/01/12 06:46:07;;;;;;;62.63;33.10;;;;;;;1.55;97.30;103737.00;5050144;28;20064;-61
2022/01/12 06:48:33;;;;;;;62.63;33.77;;;;;;;1.55;97.58;103736.13;5052519;28;20032;-62
2022/01/12 06:50:58;;;;;;;62.90;32.93;;;;;;;1.57;97.50;103747.41;5052338;28;20040;-61
2022/01/12 06:53:23;;;;;;;66.30;33.83;;;;;;;1.56;97.18;103733.47;5058094;28;20028;-62
2022/01/12 06:55:49;;;;;;;65.53;33.90;;;;;;;1.57;97.77;103729.09;5050936;28;20044;-62
2022/01/12 06:58:14;;;;;;;60.90;33.87;;;;;;;1.60;97.91;103729.06;5050024;28;20038;-64
2022/01/12 07:00:40;;;;;;;58.73;32.23;;;;;;;1.60;97.49;103739.50;5049306;28;20108;-62
2022/01/12 07:03:05;;;;;;;62.88;33.85;;;;;;;1.59;97.96;103743.03;5011661;28;1008762;-63
2022/01/12 07:05:31;;;;;;;64.47;34.03;;;;;;;1.59;97.85;103741.25;5050080;28;20029;-63
2022/01/12 07:07:56;;;;;;;63.90;33.57;;;;;;;1.61;98.05;103738.63;5050142;28;20033;-62
2022/01/12 07:10:21;;;;;;;58.93;32.80;;;;;;;1.61;97.73;103741.22;5050441;28;20021;-60
2022/01/12 07:12:46;;;;;;;62.87;33.67;;;;;;;1.64;97.65;103756.88;5044881;28;20032;-60
2022/01/12 07:15:12;;;;;;;65.37;33.10;;;;;;;1.63;97.73;103764.75;5050877;28;20025;-60
2022/01/12 07:17:37;;;;;;;64.10;33.53;;;;;;;1.63;97.94;103765.59;5051123;28;20021;-60
2022/01/12 07:20:04;;;;;;;67.13;34.03;;;;;;;1.62;98.05;103753.41;5047851;28;20506;-60
2022/01/12 07:22:30;;;;;;;62.57;33.00;;;;;;;1.65;97.92;103753.38;5058071;28;20037;-60
2022/01/12 07:24:55;;;;;;;64.93;34.43;;;;;;;1.68;98.47;103757.69;5051904;28;20044;-59
2022/01/12 07:27:20;;;;;;;64.90;34.50;;;;;;;1.68;98.24;103755.91;5047199;28;20477;-61
2022/01/12 07:29:45;;;;;;;65.03;34.20;;;;;;;1.68;98.29;103763.75;5051164;28;20510;-59
2022/01/12 07:32:11;;;;;;;67.97;33.57;;;;;;;1.70;98.21;103764.59;5047241;28;20086;-60
2022/01/12 07:34:36;;;;;;;69.37;34.53;;;;;;;1.70;98.32;103761.13;5055961;28;20051;-59
2022/01/12 07:37:01;;;;;;;61.33;33.07;;;;;;;1.72;98.31;103777.63;5047097;28;20039;-60
2022/01/12 07:39:27;;;;;;;65.60;34.60;;;;;;;1.72;98.25;103786.34;5049039;28;20036;-60
2022/01/12 07:41:52;;;;;;;64.43;34.67;;;;;;;1.70;98.21;103790.78;5050088;28;20063;-61
2022/01/12 07:44:17;;;;;;;65.17;34.03;;;;;;;1.71;98.32;103789.88;5045475;28;20029;-60
2022/01/12 07:46:43;;;;;;;66.10;34.17;;;;;;;1.70;98.32;103800.34;5050404;28;20163;-60
2022/01/12 07:49:08;;;;;;;63.30;34.37;;;;;;;1.69;97.84;103804.75;5047883;28;20036;-61
2022/01/12 07:51:34;;;;;;;62.67;33.27;;;;;;;1.70;98.42;103801.22;5050460;28;20032;-63
2022/01/12 07:53:59;;;;;;;66.57;34.27;;;;;;;1.72;98.38;103809.91;5049645;28;20031;-63
2022/01/12 07:56:24;;;;;;;64.37;34.53;;;;;;;1.71;98.75;103805.56;5046008;28;20037;-63
2022/01/12 07:58:49;;;;;;;65.93;34.33;;;;;;;1.72;98.43;103815.13;5038724;28;20245;-62
2022/01/12 08:01:15;;;;;;;62.97;34.00;;;;;;;1.72;98.42;103817.75;5046412;28;20056;-62
2022/01/12 08:03:40;;;;;;;64.27;34.60;;;;;;;1.76;98.59;103822.94;5038100;28;20053;-63
2022/01/12 08:06:05;;;;;;;66.40;34.90;;;;;;;1.76;98.68;103830.78;5041814;28;20040;-62
2022/01/12 08:08:31;;;;;;;66.03;34.97;;;;;;;1.76;98.54;103833.41;5036602;28;20056;-63
2022/01/12 08:10:56;;;;;;;64.67;34.67;;;;;;;1.77;98.83;103835.13;5051818;28;20029;-60
2022/01/12 08:13:21;;;;;;;71.03;35.07;;;;;;;1.76;98.80;103849.09;5048141;28;20052;-59
2022/01/12 08:15:47;;;;;;;67.23;35.03;;;;;;;1.76;98.44;103849.09;5035737;28;20032;-59
2022/01/12 08:18:12;;;;;;;73.93;35.93;;;;;;;1.78;98.96;103860.41;5048661;28;20040;-60
2022/01/12 08:20:37;;;;;;;78.73;36.27;;;;;;;1.80;98.45;103866.47;5035074;28;20037;-60
2022/01/12 08:23:02;;;;;;;76.63;37.37;;;;;;;1.78;98.94;103857.78;5036597;28;20412;-60
2022/01/12 08:25:28;;;;;;;80.20;37.23;;;;;;;1.77;98.95;103861.28;5035298;28;20248;-58
2022/01/12 08:27:53;;;;;;;89.90;37.27;;;;;;;1.76;98.99;103860.41;5035384;28;20772;-60
2022/01/12 08:30:21;;;;;;;86.83;37.67;;;;;;;1.78;99.17;103865.63;5038971;28;20036;-60
2022/01/12 08:32:50;;;;;;;93.27;38.23;;;;;;;1.73;99.62;103861.34;5037496;28;20479;-60
2022/01/12 08:35:16;;;;;;;90.53;38.27;;;;;;;1.78;99.72;103866.47;5050633;28;20025;-60
2022/01/12 08:37:42;;;;;;;91.43;38.27;;;;;;;1.79;99.80;103859.50;5045575;28;20028;-60
2022/01/12 08:40:08;;;;;;;95.60;39.80;;;;;;;1.80;100.00;103869.06;5043596;28;20041;-60
2022/01/12 08:42:33;;;;;;;94.03;38.23;;;;;;;1.82;99.99;103859.47;5039598;28;20419;-60
2022/01/12 08:45:00;;;;;;;90.13;38.00;;;;;;;1.82;99.82;103859.47;5039944;28;20086;-60
2022/01/12 08:47:26;;;;;;;96.63;39.70;;;;;;;1.83;100.00;103867.25;5046801;28;20034;-61
2022/01/12 08:49:52;;;;;;;99.07;39.97;;;;;;;1.85;100.00;103867.22;5041692;28;20033;-60
2022/01/12 08:52:17;;;;;;;103.33;39.37;;;;;;;1.88;100.00;103859.34;5046417;28;20170;-60
2022/01/12 08:54:42;;;;;;;101.27;39.37;;;;;;;1.90;100.00;103857.53;5035027;28;20033;-60
2022/01/12 08:57:08;;;;;;;96.13;39.37;;;;;;;1.95;100.00;103871.41;5034000;28;20037;-60
2022/01/12 08:59:33;;;;;;;96.60;38.30;;;;;;;1.97;100.00;103864.38;5035228;28;20082;-60
2022/01/12 09:01:58;;;;;;;102.77;39.73;;;;;;;1.99;100.00;103873.09;5040059;28;20090;-60
2022/01/12 09:04:24;;;;;;;104.93;39.53;;;;;;;2.03;100.00;103873.00;5046160;28;20392;-60
2022/01/12 09:06:49;;;;;;;106.17;39.90;;;;;;;2.05;100.00;103876.44;5033482;28;20029;-60
2022/01/12 09:09:14;;;;;;;124.73;39.40;;;;;;;2.01;100.00;103881.75;5042593;28;20025;-60
2022/01/12 09:11:40;;;;;;;99.77;40.13;;;;;;;2.07;100.00;103893.84;5042289;28;20086;-59
2022/01/12 09:14:05;;;;;;;90.07;37.73;;;;;;;2.10;100.00;103901.66;5048039;28;20037;-60
2022/01/12 09:16:30;;;;;;;112.47;36.97;;;;;;;2.10;100.00;103906.91;5045886;28;20058;-59
2022/01/12 09:18:57;;;;;;;97.33;36.00;;;;;;;2.12;100.00;103909.50;5041819;28;20095;-60
2022/01/12 09:21:23;;;;;;;115.77;36.73;;;;;;;2.10;100.00;103912.13;5043110;28;20021;-60
2022/01/12 09:23:49;;;;;;;105.20;38.17;;;;;;;2.10;100.00;103912.13;5036822;28;20040;-60
2022/01/12 09:26:14;;;;;;;106.93;39.53;;;;;;;2.11;100.00;103907.75;5043517;28;20037;-59
2022/01/12 09:28:40;;;;;;;117.40;39.07;;;;;;;2.12;100.00;103909.50;5047145;28;20068;-60
2022/01/12 09:31:05;;;;;;;113.60;39.10;;;;;;;2.13;100.00;103926.94;5046284;28;20063;-62
2022/01/12 09:33:31;;;;;;;179.33;39.47;;;;;;;2.12;100.00;103931.28;5045969;28;20512;-63
2022/01/12 09:35:56;;;;;;;128.10;38.87;;;;;;;2.15;100.00;103927.75;5031577;28;20381;-62
2022/01/12 09:38:22;;;;;;;115.50;35.93;;;;;;;2.20;100.00;103933.75;5035442;28;20388;-62
2022/01/12 09:40:51;;;;;;;106.03;31.67;;;;;;;2.29;100.00;103936.19;5041748;28;20119;-64
2022/01/12 09:43:16;;;;;;;102.20;32.03;;;;;;;2.19;100.00;103929.44;5046012;28;20472;-62
2022/01/12 09:45:49;;;;;;;83.57;28.80;;;;;;;2.23;100.00;103931.06;5047604;28;20034;-63
2022/01/12 09:48:14;;;;;;;119.45;31.10;;;;;;;2.23;100.00;103933.69;5046810;28;20047;-62
2022/01/12 09:50:40;;;;;;;138.17;31.63;;;;;;;2.14;100.00;103931.25;5037146;28;20029;-62
2022/01/12 09:53:05;;;;;;;85.90;26.80;;;;;;;2.15;100.00;103936.47;5048701;28;20111;-63
2022/01/12 09:55:30;;;;;;;83.23;28.83;;;;;;;2.15;100.00;103930.38;5044733;28;20538;-63
2022/01/12 09:57:55;;;;;;;74.97;27.43;;;;;;;2.19;100.00;103939.03;5043434;28;20564;-62
2022/01/12 10:00:27;;;;;;;95.87;26.30;;;;;;;2.21;100.00;103940.72;5040873;28;20028;-62
2022/01/12 10:02:53;;;;;;;109.93;26.50;;;;;;;2.19;100.00;103942.53;5042849;28;20429;-62
2022/01/12 10:05:18;;;;;;;117.93;28.17;;;;;;;2.20;100.00;103954.72;5037687;28;20119;-62
2022/01/12 10:07:43;;;;;;;131.27;28.33;;;;;;;2.17;100.00;103954.75;5047719;28;20447;-63
2022/01/12 10:10:15;;;;;;;145.03;28.40;;;;;;;2.20;100.00;103965.19;5045886;28;20044;-63
2022/01/12 10:12:52;;;;;;;107.90;27.10;;;;;;;2.19;100.00;103968.69;5044970;28;20021;-63
2022/01/12 10:15:18;;;;;;;296.63;33.00;;;;;;;2.12;100.00;103967.94;5049396;28;20029;-62
2022/01/12 10:17:44;;;;;;;135.90;26.00;;;;;;;2.19;100.00;103968.69;5043375;28;20082;-63
2022/01/12 10:20:18;;;;;;;177.47;26.77;;;;;;;2.13;100.00;103964.44;5042309;28;20035;-63
2022/01/12 10:23:04;;;;;;;;;;;;;;;2.13;100.00;103969.66;5043276;28;20401;-63
2022/01/12 10:25:30;;;;;;;155.87;26.07;;;;;;;2.16;100.00;103968.75;5046652;28;20007;-63
2022/01/12 10:27:56;;;;;;;300.93;28.70;;;;;;;2.04;100.00;103959.38;5047693;28;20108;-64
2022/01/12 10:30:30;;;;;;;117.43;25.93;;;;;;;2.03;100.00;103946.31;5044303;28;20069;-64
2022/01/12 10:33:03;;;;;;;;;;;;;;;2.15;100.00;103951.31;5047271;28;20044;-64
2022/01/12 10:35:29;;;;;;;;;;;;;;;2.20;100.00;103944.25;5051938;28;19924;-58
2022/01/12 10:38:07;;;;;;;284.70;29.40;;;;;;;2.18;100.00;103946.03;5054807;28;19916;-58
2022/01/12 10:41:03;;;;;;;323.87;30.93;;;;;;;2.16;100.00;103953.03;5044414;28;20049;-58
2022/01/12 10:43:39;;;;;;;151.93;25.90;;;;;;;2.15;100.00;103948.69;5029015;28;20059;-58
2022/01/12 10:46:07;;;;;;;152.37;26.77;;;;;;;2.05;100.00;103950.63;5043285;28;20644;-58
2022/01/12 10:48:40;;;;;;;107.43;28.97;;;;;;;2.14;100.00;103950.44;5043258;28;20037;-58
2022/01/12 10:51:06;;;;;;;;;;;;;;;2.19;100.00;103954.72;5052463;28;20056;-59
2022/01/12 10:53:33;;;;;;;282.37;31.23;;;;;;;2.11;100.00;103962.72;5058432;28;19950;-58
2022/01/12 10:56:03;;;;;;;298.23;30.33;;;;;;;2.09;100.00;103954.94;5047245;28;20040;-58
2022/01/12 10:58:28;;;;;;;392.67;33.83;;;;;;;2.05;100.00;103965.47;5052149;28;20029;-58
2022/01/12 11:00:53;;;;;;;151.73;30.20;;;;;;;2.07;100.00;103959.31;5057115;28;20033;-58
2022/01/12 11:03:19;;;;;;;147.13;30.80;;;;;;;2.11;100.00;103960.09;5047399;28;20045;-58
2022/01/12 11:05:45;;;;;;;131.47;29.33;;;;;;;2.18;100.00;103969.59;5053361;28;20044;-58
2022/01/12 11:08:10;;;;;;;98.17;28.97;;;;;;;2.19;100.00;103973.94;5049823;28;20033;-58
2022/01/12 11:10:36;;;;;;;90.10;29.73;;;;;;;2.22;100.00;103960.78;5055311;28;20400;-59
2022/01/12 11:13:01;;;;;;;100.60;30.57;;;;;;;2.25;100.00;103958.13;5048963;28;20037;-59
2022/01/12 11:15:27;;;;;;;128.10;30.67;;;;;;;2.28;100.00;103967.66;5050948;28;20037;-59
2022/01/12 11:17:52;;;;;;;94.57;30.97;;;;;;;2.27;100.00;103966.78;5052014;28;20531;-58
2022/01/12 11:20:27;;;;;;;82.20;29.60;;;;;;;2.31;100.00;103958.88;5055250;28;20029;-59
2022/01/12 11:23:03;;;;;;;80.87;29.97;;;;;;;2.32;100.00;103960.63;5051955;28;20033;-59
2022/01/12 11:25:38;;;;;;;87.67;30.80;;;;;;;2.32;100.00;103963.22;5046403;28;20114;-59
2022/01/12 11:28:24;;;;;;;75.77;29.47;;;;;;;2.31;100.00;103961.50;5056175;28;20041;-58
2022/01/12 11:30:53;;;;;;;76.27;28.70;;;;;;;2.35;100.00;103978.88;5050486;28;20068;-59
2022/01/12 11:33:21;;;;;;;77.30;28.90;;;;;;;2.31;100.00;103974.59;5049980;28;20156;-59
2022/01/12 11:35:49;;;;;;;75.43;28.50;;;;;;;2.41;100.00;103968.28;5049208;28;20102;-59
2022/01/12 11:38:26;;;;;;;74.77;28.43;;;;;;;2.37;100.00;103967.47;5051849;28;20053;-59
2022/01/12 11:40:54;;;;;;;74.77;27.57;;;;;;;2.36;100.00;103970.16;5054341;28;20033;-59
2022/01/12 11:43:25;;;;;;;68.50;27.90;;;;;;;2.39;100.00;103975.31;5043440;28;20030;-59
2022/01/12 11:46:12;;;;;;;68.20;27.65;;;;;;;2.43;100.00;103961.28;5045134;28;20036;-58
2022/01/12 11:48:47;;;;;;;83.33;28.93;;;;;;;2.47;100.00;103968.16;5051552;28;20377;-58
2022/01/12 11:51:14;;;;;;;71.40;28.53;;;;;;;2.49;100.00;103961.16;5046611;28;20021;-58
2022/01/12 11:53:49;;;;;;;65.97;27.33;;;;;;;2.55;100.00;103952.28;5048439;28;20055;-58
2022/01/12 11:56:18;;;;;;;65.57;26.17;;;;;;;2.57;100.00;103947.03;5049826;28;20037;-58
2022/01/12 11:58:59;;;;;;;72.47;27.63;;;;;;;2.63;100.00;103947.78;5046774;28;20035;-58
2022/01/12 12:01:38;;;;;;;67.17;27.60;;;;;;;2.63;100.00;103946.88;5041309;28;20029;-59
2022/01/12 12:04:04;;;;;;;58.90;25.88;;;;;;;2.65;100.00;103966.94;5049111;28;20112;-58
2022/01/12 12:06:31;;;;;;;67.60;27.77;;;;;;;2.58;100.00;103964.47;5036776;28;20508;-59
2022/01/12 12:09:15;;;;;;;68.90;27.45;;;;;;;2.58;100.00;103959.22;5041651;28;20108;-59
2022/01/12 12:11:48;;;;;;;70.70;27.90;;;;;;;2.60;100.00;103962.66;5043229;28;20044;-59
2022/01/12 12:14:16;;;;;;;60.23;26.57;;;;;;;2.62;100.00;103966.13;5039503;28;20029;-59
2022/01/12 12:16:42;;;;;;;62.40;26.08;;;;;;;2.65;100.00;103960.81;5046208;28;20035;-58
2022/01/12 12:19:07;;;;;;;54.67;26.10;;;;;;;2.61;100.00;103964.41;5039916;28;20036;-62
2022/01/12 12:21:34;;;;;;;64.50;27.13;;;;;;;2.61;100.00;103964.41;5041401;28;20032;-62
2022/01/12 12:24:13;;;;;;;58.20;25.65;;;;;;;2.68;99.25;103966.00;5041906;28;20045;-62
2022/01/12 12:26:48;;;;;;;59.07;26.70;;;;;;;2.67;99.99;103969.53;5042691;28;20017;-62
2022/01/12 12:29:15;;;;;;;60.60;25.88;;;;;;;2.59;99.13;103974.03;5046286;28;20032;-62
2022/01/12 12:31:46;;;;;;;62.88;25.92;;;;;;;2.58;99.56;103972.31;5042505;28;20021;-62